sensor_id;sensor_type;location;lat;lon;timestamp;temperature;humidity
20841;DHT22;10581;48.524;9.040;2022-08-19T00:01:40;19.50;99.90
20841;DHT22;10581;48.524;9.040;2022-08-19T00:04:09;19.50;99.90
20841;DHT22;10581;48.524;9.040;2022-08-19T00:06:36;19.50;99.90
20841;DHT22;10581;48.524;9.040;2022-08-19T00:09:04;19.40;99.90
20841;DHT22;10581;48.524;9.040;2022-08-19T00:11:30;19.40;99.90
20841;DHT22;10581;48.524;9.040;2022-08-19T00:13:56;19.40;99.90
20841;DHT22;10581;48.524;9.040;2022-08-19T00:16:22;19.30;99.90
20841;DHT22;10581;48.524;9.040;2022-08-19T00:18:48;19.30;99.90
20841;DHT22;10581;48.524;9.040;2022-08-19T00:21:15;19.30;99.90
20841;DHT22;10581;48.524;9.040;2022-08-19T00:23:41;19.20;99.90
20841;DHT22;10581;48.524;9.040;2022-08-19T00:26:09;19.20;99.90
20841;DHT22;10581;48.524;9.040;2022-08-19T00:28:35;19.10;99.90
20841;DHT22;10581;48.524;9.040;2022-08-19T00:31:05;19.10;99.90
20841;DHT22;10581;48.524;9.040;2022-08-19T00:33:32;19.10;99.90
20841;DHT22;10581;48.524;9.040;2022-08-19T00:36:04;19.10;99.90
20841;DHT22;10581;48.524;9.040;2022-08-19T00:38:31;19.10;99.90
20841;DHT22;10581;48.524;9.040;2022-08-19T00:40:57;18.90;99.90
20841;DHT22;10581;48.524;9.040;2022-08-19T00:43:25;18.80;99.90
20841;DHT22;10581;48.524;9.040;2022-08-19T00:45:51;18.70;99.90
20841;DHT22;10581;48.524;9.040;2022-08-19T00:48:18;18.70;99.90
20841;DHT22;10581;48.524;9.040;2022-08-19T00:50:45;18.60;99.90
20841;DHT22;10581;48.524;9.040;2022-08-19T00:53:14;18.60;99.90
20841;DHT22;10581;48.524;9.040;2022-08-19T00:55:42;18.50;99.90
20841;DHT22;10581;48.524;9.040;2022-08-19T00:58:12;18.50;99.90
20841;DHT22;10581;48.524;9.040;2022-08-19T01:00:39;18.50;99.90
20841;DHT22;10581;48.524;9.040;2022-08-19T01:03:10;18.50;99.90
20841;DHT22;10581;48.524;9.040;2022-08-19T01:05:37;18.40;99.90
20841;DHT22;10581;48.524;9.040;2022-08-19T01:08:05;18.40;99.90
20841;DHT22;10581;48.524;9.040;2022-08-19T01:10:35;18.40;99.90
20841;DHT22;10581;48.524;9.040;2022-08-19T01:13:03;18.40;99.90
20841;DHT22;10581;48.524;9.040;2022-08-19T01:15:34;18.40;99.90
20841;DHT22;10581;48.524;9.040;2022-08-19T01:18:04;18.40;99.90
20841;DHT22;10581;48.524;9.040;2022-08-19T01:20:30;18.30;99.90
20841;DHT22;10581;48.524;9.040;2022-08-19T01:22:58;18.30;99.90
20841;DHT22;10581;48.524;9.040;2022-08-19T01:25:31;18.30;99.90
20841;DHT22;10581;48.524;9.040;2022-08-19T01:27:57;18.30;99.90
20841;DHT22;10581;48.524;9.040;2022-08-19T01:30:30;18.20;99.90
20841;DHT22;10581;48.524;9.040;2022-08-19T01:32:57;18.30;99.90
20841;DHT22;10581;48.524;9.040;2022-08-19T01:35:26;18.20;99.90
20841;DHT22;10581;48.524;9.040;2022-08-19T01:38:00;18.20;99.90
20841;DHT22;10581;48.524;9.040;2022-08-19T01:40:29;18.20;99.90
20841;DHT22;10581;48.524;9.040;2022-08-19T01:42:56;18.10;99.90
20841;DHT22;10581;48.524;9.040;2022-08-19T01:45:23;18.10;99.90
20841;DHT22;10581;48.524;9.040;2022-08-19T01:47:49;18.10;99.90
20841;DHT22;10581;48.524;9.040;2022-08-19T01:50:15;18.00;99.90
20841;DHT22;10581;48.524;9.040;2022-08-19T01:52:42;18.00;99.90
20841;DHT22;10581;48.524;9.040;2022-08-19T01:55:13;18.00;99.90
20841;DHT22;10581;48.524;9.040;2022-08-19T01:57:41;18.00;99.90
20841;DHT22;10581;48.524;9.040;2022-08-19T02:00:11;18.00;99.90
20841;DHT22;10581;48.524;9.040;2022-08-19T02:02:37;18.00;99.90
20841;DHT22;10581;48.524;9.040;2022-08-19T02:05:04;18.00;99.90
20841;DHT22;10581;48.524;9.040;2022-08-19T02:07:29;18.00;99.90
20841;DHT22;10581;48.524;9.040;2022-08-19T02:09:55;17.90;99.90
20841;DHT22;10581;48.524;9.040;2022-08-19T02:12:21;17.90;99.90
20841;DHT22;10581;48.524;9.040;2022-08-19T02:14:47;18.00;99.90
20841;DHT22;10581;48.524;9.040;2022-08-19T02:17:13;18.00;99.90
20841;DHT22;10581;48.524;9.040;2022-08-19T02:19:38;18.00;99.90
20841;DHT22;10581;48.524;9.040;2022-08-19T02:22:04;17.90;99.90
20841;DHT22;10581;48.524;9.040;2022-08-19T02:24:30;17.90;99.90
20841;DHT22;10581;48.524;9.040;2022-08-19T02:26:56;17.90;99.90
20841;DHT22;10581;48.524;9.040;2022-08-19T02:29:24;17.80;99.90
20841;DHT22;10581;48.524;9.040;2022-08-19T02:31:50;17.80;99.90
20841;DHT22;10581;48.524;9.040;2022-08-19T02:34:16;17.80;99.90
20841;DHT22;10581;48.524;9.040;2022-08-19T02:36:42;17.70;99.90
20841;DHT22;10581;48.524;9.040;2022-08-19T02:39:08;17.80;99.90
20841;DHT22;10581;48.524;9.040;2022-08-19T02:41:34;17.80;99.90
20841;DHT22;10581;48.524;9.040;2022-08-19T02:44:02;17.80;99.90
20841;DHT22;10581;48.524;9.040;2022-08-19T02:46:31;17.80;99.90
20841;DHT22;10581;48.524;9.040;2022-08-19T02:49:02;17.80;99.90
20841;DHT22;10581;48.524;9.040;2022-08-19T02:51:31;17.80;99.90
20841;DHT22;10581;48.524;9.040;2022-08-19T02:53:58;17.90;99.90
20841;DHT22;10581;48.524;9.040;2022-08-19T02:56:26;17.90;99.90
20841;DHT22;10581;48.524;9.040;2022-08-19T02:58:55;17.90;99.90
20841;DHT22;10581;48.524;9.040;2022-08-19T03:01:26;17.90;99.90
20841;DHT22;10581;48.524;9.040;2022-08-19T03:03:52;17.80;99.90
20841;DHT22;10581;48.524;9.040;2022-08-19T03:06:19;17.70;99.90
20841;DHT22;10581;48.524;9.040;2022-08-19T03:08:46;17.70;99.90
20841;DHT22;10581;48.524;9.040;2022-08-19T03:11:17;17.60;99.90
20841;DHT22;10581;48.524;9.040;2022-08-19T03:13:43;17.60;99.90
20841;DHT22;10581;48.524;9.040;2022-08-19T03:16:11;17.60;99.90
20841;DHT22;10581;48.524;9.040;2022-08-19T03:18:37;17.60;99.90
20841;DHT22;10581;48.524;9.040;2022-08-19T03:21:03;17.60;99.90
20841;DHT22;10581;48.524;9.040;2022-08-19T03:23:29;17.60;99.90
20841;DHT22;10581;48.524;9.040;2022-08-19T03:25:55;17.60;99.90
20841;DHT22;10581;48.524;9.040;2022-08-19T03:28:21;17.50;99.90
20841;DHT22;10581;48.524;9.040;2022-08-19T03:30:58;17.50;99.90
20841;DHT22;10581;48.524;9.040;2022-08-19T03:33:25;17.50;99.90
20841;DHT22;10581;48.524;9.040;2022-08-19T03:36:21;17.50;99.90
20841;DHT22;10581;48.524;9.040;2022-08-19T03:38:50;17.50;99.90
20841;DHT22;10581;48.524;9.040;2022-08-19T03:41:19;17.50;99.90
20841;DHT22;10581;48.524;9.040;2022-08-19T03:43:45;17.50;99.90
20841;DHT22;10581;48.524;9.040;2022-08-19T03:46:21;17.50;99.90
20841;DHT22;10581;48.524;9.040;2022-08-19T03:48:49;17.60;99.90
20841;DHT22;10581;48.524;9.040;2022-08-19T03:51:25;17.60;99.90
20841;DHT22;10581;48.524;9.040;2022-08-19T03:53:52;17.60;99.90
20841;DHT22;10581;48.524;9.040;2022-08-19T03:56:18;17.60;99.90
20841;DHT22;10581;48.524;9.040;2022-08-19T03:58:44;17.60;99.90
20841;DHT22;10581;48.524;9.040;2022-08-19T04:01:13;17.60;99.90
20841;DHT22;10581;48.524;9.040;2022-08-19T04:03:40;17.70;99.90
20841;DHT22;10581;48.524;9.040;2022-08-19T04:06:13;17.60;99.90
20841;DHT22;10581;48.524;9.040;2022-08-19T04:08:40;17.60;99.90
20841;DHT22;10581;48.524;9.040;2022-08-19T04:11:08;17.60;99.90
20841;DHT22;10581;48.524;9.040;2022-08-19T04:13:34;17.50;99.90
20841;DHT22;10581;48.524;9.040;2022-08-19T04:16:00;17.50;99.90
20841;DHT22;10581;48.524;9.040;2022-08-19T04:18:26;17.50;99.90
20841;DHT22;10581;48.524;9.040;2022-08-19T04:20:52;17.40;99.90
20841;DHT22;10581;48.524;9.040;2022-08-19T04:23:17;17.40;99.90
20841;DHT22;10581;48.524;9.040;2022-08-19T04:25:44;17.50;99.90
20841;DHT22;10581;48.524;9.040;2022-08-19T04:28:12;17.50;99.90
20841;DHT22;10581;48.524;9.040;2022-08-19T04:30:53;17.60;99.90
20841;DHT22;10581;48.524;9.040;2022-08-19T04:33:22;17.60;99.90
20841;DHT22;10581;48.524;9.040;2022-08-19T04:35:49;17.50;99.90
20841;DHT22;10581;48.524;9.040;2022-08-19T04:38:17;17.50;99.90
20841;DHT22;10581;48.524;9.040;2022-08-19T04:40:46;17.50;99.90
20841;DHT22;10581;48.524;9.040;2022-08-19T04:43:31;17.50;99.90
20841;DHT22;10581;48.524;9.040;2022-08-19T04:45:57;17.50;99.90
20841;DHT22;10581;48.524;9.040;2022-08-19T04:48:23;17.50;99.90
20841;DHT22;10581;48.524;9.040;2022-08-19T04:50:56;17.50;99.90
20841;DHT22;10581;48.524;9.040;2022-08-19T04:53:30;17.50;99.90
20841;DHT22;10581;48.524;9.040;2022-08-19T04:55:57;17.50;99.90
20841;DHT22;10581;48.524;9.040;2022-08-19T04:58:24;17.50;99.90
20841;DHT22;10581;48.524;9.040;2022-08-19T05:00:51;17.50;99.90
20841;DHT22;10581;48.524;9.040;2022-08-19T05:03:17;17.50;99.90
20841;DHT22;10581;48.524;9.040;2022-08-19T05:05:44;17.60;99.90
20841;DHT22;10581;48.524;9.040;2022-08-19T05:08:12;17.50;99.90
20841;DHT22;10581;48.524;9.040;2022-08-19T05:10:38;17.50;99.90
20841;DHT22;10581;48.524;9.040;2022-08-19T05:13:04;17.50;99.90
20841;DHT22;10581;48.524;9.040;2022-08-19T05:15:31;17.50;99.90
20841;DHT22;10581;48.524;9.040;2022-08-19T05:17:57;17.50;99.90
20841;DHT22;10581;48.524;9.040;2022-08-19T05:20:41;17.50;99.90
20841;DHT22;10581;48.524;9.040;2022-08-19T05:23:25;17.60;99.90
20841;DHT22;10581;48.524;9.040;2022-08-19T05:25:51;17.60;99.90
20841;DHT22;10581;48.524;9.040;2022-08-19T05:28:18;17.60;99.90
20841;DHT22;10581;48.524;9.040;2022-08-19T05:30:44;17.60;99.90
20841;DHT22;10581;48.524;9.040;2022-08-19T05:33:11;17.60;99.90
20841;DHT22;10581;48.524;9.040;2022-08-19T05:35:38;17.60;99.90
20841;DHT22;10581;48.524;9.040;2022-08-19T05:38:05;17.60;99.90
20841;DHT22;10581;48.524;9.040;2022-08-19T05:40:34;17.70;99.90
20841;DHT22;10581;48.524;9.040;2022-08-19T05:43:03;17.70;99.90
20841;DHT22;10581;48.524;9.040;2022-08-19T05:45:29;17.80;99.90
20841;DHT22;10581;48.524;9.040;2022-08-19T05:47:55;17.90;99.90
20841;DHT22;10581;48.524;9.040;2022-08-19T05:50:21;17.90;99.90
20841;DHT22;10581;48.524;9.040;2022-08-19T05:52:46;17.90;99.90
20841;DHT22;10581;48.524;9.040;2022-08-19T05:55:12;18.00;99.90
20841;DHT22;10581;48.524;9.040;2022-08-19T05:57:38;18.00;99.90
20841;DHT22;10581;48.524;9.040;2022-08-19T06:00:05;18.00;99.90
20841;DHT22;10581;48.524;9.040;2022-08-19T06:02:35;18.10;99.90
20841;DHT22;10581;48.524;9.040;2022-08-19T06:05:02;18.10;99.90
20841;DHT22;10581;48.524;9.040;2022-08-19T06:07:28;18.10;99.90
20841;DHT22;10581;48.524;9.040;2022-08-19T06:09:54;18.10;99.90
20841;DHT22;10581;48.524;9.040;2022-08-19T06:12:20;18.20;99.90
20841;DHT22;10581;48.524;9.040;2022-08-19T06:14:51;18.20;99.90
20841;DHT22;10581;48.524;9.040;2022-08-19T06:17:18;18.20;99.90
20841;DHT22;10581;48.524;9.040;2022-08-19T06:19:43;18.20;99.90
20841;DHT22;10581;48.524;9.040;2022-08-19T06:22:09;18.20;99.90
20841;DHT22;10581;48.524;9.040;2022-08-19T06:24:37;18.30;99.90
20841;DHT22;10581;48.524;9.040;2022-08-19T06:27:03;18.30;99.90
20841;DHT22;10581;48.524;9.040;2022-08-19T06:29:30;18.40;99.90
20841;DHT22;10581;48.524;9.040;2022-08-19T06:31:59;18.40;99.90
20841;DHT22;10581;48.524;9.040;2022-08-19T06:34:27;18.50;99.90
20841;DHT22;10581;48.524;9.040;2022-08-19T06:36:54;18.50;99.90
20841;DHT22;10581;48.524;9.040;2022-08-19T06:39:23;18.50;99.90
20841;DHT22;10581;48.524;9.040;2022-08-19T06:41:52;18.50;99.90
20841;DHT22;10581;48.524;9.040;2022-08-19T06:44:20;18.60;99.90
20841;DHT22;10581;48.524;9.040;2022-08-19T06:46:46;18.60;99.90
20841;DHT22;10581;48.524;9.040;2022-08-19T06:49:13;18.60;99.90
20841;DHT22;10581;48.524;9.040;2022-08-19T06:51:45;18.70;99.90
20841;DHT22;10581;48.524;9.040;2022-08-19T06:54:13;18.70;99.90
20841;DHT22;10581;48.524;9.040;2022-08-19T06:56:39;18.70;99.90
20841;DHT22;10581;48.524;9.040;2022-08-19T06:59:10;18.70;99.90
20841;DHT22;10581;48.524;9.040;2022-08-19T07:01:45;18.70;99.90
20841;DHT22;10581;48.524;9.040;2022-08-19T07:04:14;18.80;99.90
20841;DHT22;10581;48.524;9.040;2022-08-19T07:06:41;18.90;99.90
20841;DHT22;10581;48.524;9.040;2022-08-19T07:09:08;18.90;99.90
20841;DHT22;10581;48.524;9.040;2022-08-19T07:11:34;19.00;99.90
20841;DHT22;10581;48.524;9.040;2022-08-19T07:14:01;18.90;99.90
20841;DHT22;10581;48.524;9.040;2022-08-19T07:16:27;18.90;99.90
20841;DHT22;10581;48.524;9.040;2022-08-19T07:18:54;18.90;99.90
20841;DHT22;10581;48.524;9.040;2022-08-19T07:21:23;18.80;99.90
20841;DHT22;10581;48.524;9.040;2022-08-19T07:23:50;18.90;99.90
20841;DHT22;10581;48.524;9.040;2022-08-19T07:26:23;18.80;99.90
20841;DHT22;10581;48.524;9.040;2022-08-19T07:28:48;18.80;99.90
20841;DHT22;10581;48.524;9.040;2022-08-19T07:31:18;18.80;99.90
20841;DHT22;10581;48.524;9.040;2022-08-19T07:33:46;18.70;99.90
20841;DHT22;10581;48.524;9.040;2022-08-19T07:36:14;18.70;99.90
20841;DHT22;10581;48.524;9.040;2022-08-19T07:38:42;18.70;99.90
20841;DHT22;10581;48.524;9.040;2022-08-19T07:41:11;18.70;99.90
20841;DHT22;10581;48.524;9.040;2022-08-19T07:43:38;18.70;99.90
20841;DHT22;10581;48.524;9.040;2022-08-19T07:46:04;18.80;99.90
20841;DHT22;10581;48.524;9.040;2022-08-19T07:48:29;18.80;99.90
20841;DHT22;10581;48.524;9.040;2022-08-19T07:50:59;18.90;99.90
20841;DHT22;10581;48.524;9.040;2022-08-19T07:53:29;18.90;99.90
20841;DHT22;10581;48.524;9.040;2022-08-19T07:55:55;18.90;99.90
20841;DHT22;10581;48.524;9.040;2022-08-19T07:58:25;19.00;99.90
20841;DHT22;10581;48.524;9.040;2022-08-19T08:00:51;19.10;99.90
20841;DHT22;10581;48.524;9.040;2022-08-19T08:03:19;19.00;99.90
20841;DHT22;10581;48.524;9.040;2022-08-19T08:05:45;19.00;99.90
20841;DHT22;10581;48.524;9.040;2022-08-19T08:08:30;19.10;99.90
20841;DHT22;10581;48.524;9.040;2022-08-19T08:11:17;19.10;99.90
20841;DHT22;10581;48.524;9.040;2022-08-19T08:13:44;19.00;99.90
20841;DHT22;10581;48.524;9.040;2022-08-19T08:16:09;19.00;99.90
20841;DHT22;10581;48.524;9.040;2022-08-19T08:18:35;19.00;99.90
20841;DHT22;10581;48.524;9.040;2022-08-19T08:21:07;19.00;99.90
20841;DHT22;10581;48.524;9.040;2022-08-19T08:23:33;19.10;99.90
20841;DHT22;10581;48.524;9.040;2022-08-19T08:25:59;19.20;99.90
20841;DHT22;10581;48.524;9.040;2022-08-19T08:28:26;19.20;99.90
20841;DHT22;10581;48.524;9.040;2022-08-19T08:30:56;19.30;99.90
20841;DHT22;10581;48.524;9.040;2022-08-19T08:33:25;19.30;99.90
20841;DHT22;10581;48.524;9.040;2022-08-19T08:35:52;19.30;99.90
20841;DHT22;10581;48.524;9.040;2022-08-19T08:38:18;19.40;99.90
20841;DHT22;10581;48.524;9.040;2022-08-19T08:40:45;19.40;99.90
20841;DHT22;10581;48.524;9.040;2022-08-19T08:48:38;19.40;99.90
20841;DHT22;10581;48.524;9.040;2022-08-19T08:51:10;19.30;99.90
20841;DHT22;10581;48.524;9.040;2022-08-19T08:53:37;19.40;99.90
20841;DHT22;10581;48.524;9.040;2022-08-19T08:56:04;19.40;99.90
20841;DHT22;10581;48.524;9.040;2022-08-19T08:58:57;19.30;99.90
20841;DHT22;10581;48.524;9.040;2022-08-19T09:01:23;19.20;99.90
20841;DHT22;10581;48.524;9.040;2022-08-19T09:03:49;19.00;99.90
20841;DHT22;10581;48.524;9.040;2022-08-19T09:16:42;18.80;99.90
20841;DHT22;10581;48.524;9.040;2022-08-19T09:19:08;18.80;99.90
20841;DHT22;10581;48.524;9.040;2022-08-19T09:21:34;18.90;99.90
20841;DHT22;10581;48.524;9.040;2022-08-19T09:24:03;18.90;99.90
20841;DHT22;10581;48.524;9.040;2022-08-19T09:26:30;18.90;99.90
20841;DHT22;10581;48.524;9.040;2022-08-19T09:28:57;19.00;99.90
20841;DHT22;10581;48.524;9.040;2022-08-19T09:31:28;19.00;99.90
20841;DHT22;10581;48.524;9.040;2022-08-19T09:33:55;18.90;99.90
20841;DHT22;10581;48.524;9.040;2022-08-19T09:36:27;18.90;99.90
20841;DHT22;10581;48.524;9.040;2022-08-19T09:38:55;18.90;99.90
20841;DHT22;10581;48.524;9.040;2022-08-19T09:41:23;18.90;99.90
20841;DHT22;10581;48.524;9.040;2022-08-19T09:43:51;18.90;99.90
20841;DHT22;10581;48.524;9.040;2022-08-19T09:46:18;18.90;99.90
20841;DHT22;10581;48.524;9.040;2022-08-19T09:48:46;18.80;99.90
20841;DHT22;10581;48.524;9.040;2022-08-19T09:51:17;18.80;99.90
20841;DHT22;10581;48.524;9.040;2022-08-19T09:53:45;18.80;99.90
20841;DHT22;10581;48.524;9.040;2022-08-19T09:56:12;18.80;99.90
20841;DHT22;10581;48.524;9.040;2022-08-19T09:58:38;18.80;99.90
20841;DHT22;10581;48.524;9.040;2022-08-19T10:01:06;18.80;99.90
20841;DHT22;10581;48.524;9.040;2022-08-19T10:03:34;18.90;99.90
20841;DHT22;10581;48.524;9.040;2022-08-19T10:06:03;19.00;99.90
20841;DHT22;10581;48.524;9.040;2022-08-19T10:08:31;19.00;99.90
20841;DHT22;10581;48.524;9.040;2022-08-19T10:10:59;19.00;99.90
20841;DHT22;10581;48.524;9.040;2022-08-19T10:13:26;19.00;99.90
20841;DHT22;10581;48.524;9.040;2022-08-19T10:15:54;19.00;99.90
20841;DHT22;10581;48.524;9.040;2022-08-19T10:18:22;19.00;99.90
20841;DHT22;10581;48.524;9.040;2022-08-19T10:20:50;18.90;99.90
20841;DHT22;10581;48.524;9.040;2022-08-19T10:23:16;18.90;99.90
20841;DHT22;10581;48.524;9.040;2022-08-19T10:25:42;19.00;99.90
20841;DHT22;10581;48.524;9.040;2022-08-19T10:28:09;19.00;99.90
20841;DHT22;10581;48.524;9.040;2022-08-19T10:30:38;18.90;99.90
20841;DHT22;10581;48.524;9.040;2022-08-19T10:33:04;18.90;99.90
20841;DHT22;10581;48.524;9.040;2022-08-19T10:35:30;18.90;99.90
20841;DHT22;10581;48.524;9.040;2022-08-19T10:37:56;18.90;99.90
20841;DHT22;10581;48.524;9.040;2022-08-19T10:40:25;18.90;99.90
20841;DHT22;10581;48.524;9.040;2022-08-19T10:42:52;18.90;99.90
20841;DHT22;10581;48.524;9.040;2022-08-19T10:45:17;19.00;99.90
20841;DHT22;10581;48.524;9.040;2022-08-19T10:47:43;18.90;99.90
20841;DHT22;10581;48.524;9.040;2022-08-19T10:50:09;18.90;99.90
20841;DHT22;10581;48.524;9.040;2022-08-19T10:52:53;19.00;99.90
20841;DHT22;10581;48.524;9.040;2022-08-19T10:55:23;19.00;99.90
20841;DHT22;10581;48.524;9.040;2022-08-19T10:58:15;19.10;99.90
20841;DHT22;10581;48.524;9.040;2022-08-19T11:00:42;19.10;99.90
20841;DHT22;10581;48.524;9.040;2022-08-19T11:03:11;19.20;99.90
20841;DHT22;10581;48.524;9.040;2022-08-19T11:05:37;19.10;99.90
20841;DHT22;10581;48.524;9.040;2022-08-19T11:08:03;19.00;99.90
20841;DHT22;10581;48.524;9.040;2022-08-19T11:10:29;19.00;99.90
20841;DHT22;10581;48.524;9.040;2022-08-19T11:12:55;19.00;99.90
20841;DHT22;10581;48.524;9.040;2022-08-19T11:15:21;19.10;99.90
20841;DHT22;10581;48.524;9.040;2022-08-19T11:17:47;19.20;99.90
20841;DHT22;10581;48.524;9.040;2022-08-19T11:20:14;19.30;99.90
20841;DHT22;10581;48.524;9.040;2022-08-19T11:22:40;19.30;99.90
20841;DHT22;10581;48.524;9.040;2022-08-19T11:25:07;19.20;99.90
20841;DHT22;10581;48.524;9.040;2022-08-19T11:27:33;19.20;99.90
20841;DHT22;10581;48.524;9.040;2022-08-19T11:29:59;19.30;99.90
20841;DHT22;10581;48.524;9.040;2022-08-19T11:32:26;19.30;99.90
20841;DHT22;10581;48.524;9.040;2022-08-19T11:34:52;19.40;99.90
20841;DHT22;10581;48.524;9.040;2022-08-19T11:37:18;19.40;99.90
20841;DHT22;10581;48.524;9.040;2022-08-19T11:39:43;19.30;99.90
20841;DHT22;10581;48.524;9.040;2022-08-19T11:42:09;19.40;99.90
20841;DHT22;10581;48.524;9.040;2022-08-19T11:44:54;19.40;99.90
20841;DHT22;10581;48.524;9.040;2022-08-19T11:47:19;19.40;99.90
20841;DHT22;10581;48.524;9.040;2022-08-19T11:49:46;19.40;99.90
20841;DHT22;10581;48.524;9.040;2022-08-19T11:52:12;19.50;99.90
20841;DHT22;10581;48.524;9.040;2022-08-19T11:54:38;19.40;99.90
20841;DHT22;10581;48.524;9.040;2022-08-19T11:57:04;19.20;99.90
20841;DHT22;10581;48.524;9.040;2022-08-19T11:59:30;19.20;99.90
20841;DHT22;10581;48.524;9.040;2022-08-19T12:01:56;19.10;99.90
20841;DHT22;10581;48.524;9.040;2022-08-19T12:04:23;19.00;99.90
20841;DHT22;10581;48.524;9.040;2022-08-19T12:06:49;19.00;99.90
20841;DHT22;10581;48.524;9.040;2022-08-19T12:09:16;18.90;99.90
20841;DHT22;10581;48.524;9.040;2022-08-19T12:11:43;19.00;99.90
20841;DHT22;10581;48.524;9.040;2022-08-19T12:14:13;19.00;99.90
20841;DHT22;10581;48.524;9.040;2022-08-19T12:16:39;19.00;99.90
20841;DHT22;10581;48.524;9.040;2022-08-19T12:19:06;18.90;99.90
20841;DHT22;10581;48.524;9.040;2022-08-19T12:21:34;18.90;99.90
20841;DHT22;10581;48.524;9.040;2022-08-19T12:24:01;18.90;99.90
20841;DHT22;10581;48.524;9.040;2022-08-19T12:26:28;18.90;99.90
20841;DHT22;10581;48.524;9.040;2022-08-19T12:28:55;18.80;99.90
20841;DHT22;10581;48.524;9.040;2022-08-19T12:31:21;18.80;99.90
20841;DHT22;10581;48.524;9.040;2022-08-19T12:33:47;18.80;99.90
20841;DHT22;10581;48.524;9.040;2022-08-19T12:36:14;18.90;99.90
20841;DHT22;10581;48.524;9.040;2022-08-19T12:38:41;19.00;99.90
20841;DHT22;10581;48.524;9.040;2022-08-19T12:41:11;19.00;99.90
20841;DHT22;10581;48.524;9.040;2022-08-19T12:43:38;18.90;99.90
20841;DHT22;10581;48.524;9.040;2022-08-19T12:46:05;18.90;99.90
20841;DHT22;10581;48.524;9.040;2022-08-19T12:48:32;19.00;99.90
20841;DHT22;10581;48.524;9.040;2022-08-19T12:50:58;19.00;99.90
20841;DHT22;10581;48.524;9.040;2022-08-19T12:53:24;19.00;99.90
20841;DHT22;10581;48.524;9.040;2022-08-19T12:55:56;19.00;99.90
20841;DHT22;10581;48.524;9.040;2022-08-19T12:58:22;19.10;99.90
20841;DHT22;10581;48.524;9.040;2022-08-19T13:00:48;19.20;99.90
20841;DHT22;10581;48.524;9.040;2022-08-19T13:03:14;19.30;99.90
20841;DHT22;10581;48.524;9.040;2022-08-19T13:05:41;19.30;99.90
20841;DHT22;10581;48.524;9.040;2022-08-19T13:08:06;19.30;99.90
20841;DHT22;10581;48.524;9.040;2022-08-19T13:10:34;19.30;99.90
20841;DHT22;10581;48.524;9.040;2022-08-19T13:13:02;19.20;99.90
20841;DHT22;10581;48.524;9.040;2022-08-19T13:15:28;19.20;99.90
20841;DHT22;10581;48.524;9.040;2022-08-19T13:17:57;19.10;99.90
20841;DHT22;10581;48.524;9.040;2022-08-19T13:20:24;19.10;99.90
20841;DHT22;10581;48.524;9.040;2022-08-19T13:22:50;19.10;99.90
20841;DHT22;10581;48.524;9.040;2022-08-19T13:25:17;19.30;99.90
20841;DHT22;10581;48.524;9.040;2022-08-19T13:27:45;19.30;99.90
20841;DHT22;10581;48.524;9.040;2022-08-19T13:30:14;19.30;99.90
20841;DHT22;10581;48.524;9.040;2022-08-19T13:32:58;19.40;99.90
20841;DHT22;10581;48.524;9.040;2022-08-19T13:35:50;19.40;99.90
20841;DHT22;10581;48.524;9.040;2022-08-19T13:38:18;19.50;99.90
20841;DHT22;10581;48.524;9.040;2022-08-19T13:40:44;19.50;99.90
20841;DHT22;10581;48.524;9.040;2022-08-19T13:43:11;19.40;99.90
20841;DHT22;10581;48.524;9.040;2022-08-19T13:45:37;19.50;99.90
20841;DHT22;10581;48.524;9.040;2022-08-19T13:48:04;19.50;99.90
20841;DHT22;10581;48.524;9.040;2022-08-19T13:50:38;19.50;99.90
20841;DHT22;10581;48.524;9.040;2022-08-19T13:53:04;19.50;99.90
20841;DHT22;10581;48.524;9.040;2022-08-19T13:55:30;19.50;99.90
20841;DHT22;10581;48.524;9.040;2022-08-19T13:57:59;19.50;99.90
20841;DHT22;10581;48.524;9.040;2022-08-19T14:00:30;19.40;99.90
20841;DHT22;10581;48.524;9.040;2022-08-19T14:02:57;19.40;99.90
20841;DHT22;10581;48.524;9.040;2022-08-19T14:05:24;19.50;99.90
20841;DHT22;10581;48.524;9.040;2022-08-19T14:07:50;19.60;99.90
20841;DHT22;10581;48.524;9.040;2022-08-19T14:10:17;19.80;99.90
20841;DHT22;10581;48.524;9.040;2022-08-19T14:12:44;20.00;99.90
20841;DHT22;10581;48.524;9.040;2022-08-19T14:15:11;20.00;99.90
20841;DHT22;10581;48.524;9.040;2022-08-19T14:17:39;19.90;99.90
20841;DHT22;10581;48.524;9.040;2022-08-19T14:20:07;19.70;99.90
20841;DHT22;10581;48.524;9.040;2022-08-19T14:22:39;19.80;99.90
20841;DHT22;10581;48.524;9.040;2022-08-19T14:25:08;19.80;99.90
20841;DHT22;10581;48.524;9.040;2022-08-19T14:27:36;19.80;99.90
20841;DHT22;10581;48.524;9.040;2022-08-19T14:30:07;19.80;99.90
20841;DHT22;10581;48.524;9.040;2022-08-19T14:32:33;20.00;99.90
20841;DHT22;10581;48.524;9.040;2022-08-19T14:34:59;20.10;99.90
20841;DHT22;10581;48.524;9.040;2022-08-19T14:37:25;20.20;99.90
20841;DHT22;10581;48.524;9.040;2022-08-19T14:39:50;20.20;99.90
20841;DHT22;10581;48.524;9.040;2022-08-19T14:42:16;20.20;99.90
20841;DHT22;10581;48.524;9.040;2022-08-19T14:44:42;20.20;99.90
20841;DHT22;10581;48.524;9.040;2022-08-19T14:47:10;20.30;99.90
20841;DHT22;10581;48.524;9.040;2022-08-19T14:49:36;20.40;99.90
20841;DHT22;10581;48.524;9.040;2022-08-19T14:52:03;20.30;99.90
20841;DHT22;10581;48.524;9.040;2022-08-19T14:54:29;20.10;99.90
20841;DHT22;10581;48.524;9.040;2022-08-19T14:56:55;20.10;99.90
20841;DHT22;10581;48.524;9.040;2022-08-19T14:59:21;20.00;99.90
20841;DHT22;10581;48.524;9.040;2022-08-19T15:01:47;20.00;99.90
20841;DHT22;10581;48.524;9.040;2022-08-19T15:04:12;20.00;99.90
20841;DHT22;10581;48.524;9.040;2022-08-19T15:06:38;20.00;99.90
20841;DHT22;10581;48.524;9.040;2022-08-19T15:09:04;20.00;99.90
20841;DHT22;10581;48.524;9.040;2022-08-19T15:11:30;19.90;99.90
20841;DHT22;10581;48.524;9.040;2022-08-19T15:13:58;19.90;99.90
20841;DHT22;10581;48.524;9.040;2022-08-19T15:16:25;19.90;99.90
20841;DHT22;10581;48.524;9.040;2022-08-19T15:18:54;19.90;99.90
20841;DHT22;10581;48.524;9.040;2022-08-19T15:21:20;20.00;99.90
20841;DHT22;10581;48.524;9.040;2022-08-19T15:23:47;20.00;99.90
20841;DHT22;10581;48.524;9.040;2022-08-19T15:26:15;20.10;99.90
20841;DHT22;10581;48.524;9.040;2022-08-19T15:28:41;20.20;99.90
20841;DHT22;10581;48.524;9.040;2022-08-19T15:31:07;20.20;99.90
20841;DHT22;10581;48.524;9.040;2022-08-19T15:33:35;20.20;99.90
20841;DHT22;10581;48.524;9.040;2022-08-19T15:36:05;20.20;99.90
20841;DHT22;10581;48.524;9.040;2022-08-19T15:38:32;20.20;99.90
20841;DHT22;10581;48.524;9.040;2022-08-19T15:41:00;20.10;99.90
20841;DHT22;10581;48.524;9.040;2022-08-19T15:43:47;20.10;99.90
20841;DHT22;10581;48.524;9.040;2022-08-19T15:46:18;20.10;99.90
20841;DHT22;10581;48.524;9.040;2022-08-19T15:48:46;20.10;99.90
20841;DHT22;10581;48.524;9.040;2022-08-19T15:51:12;20.20;99.90